createdAt,value
2022-08-05T00:01:35.459Z,41.27
2022-08-05T00:04:19.098Z,41.32
2022-08-05T00:06:47.231Z,42.12
2022-08-05T00:09:19.669Z,41.97
2022-08-05T00:11:49.375Z,42.08
2022-08-05T00:14:27.644Z,42.12
2022-08-05T00:16:56.785Z,41.66
2022-08-05T00:19:24.739Z,41.68
2022-08-05T00:21:59.692Z,42.12
2022-08-05T00:24:31.218Z,42.26
2022-08-05T00:27:04.546Z,43.23
2022-08-05T00:29:38.045Z,43.40
2022-08-05T00:32:12.243Z,43.54
2022-08-05T00:35:05.476Z,43.69
2022-08-05T00:37:29.144Z,43.13
2022-08-05T00:40:17.586Z,43.07
2022-08-05T00:42:54.732Z,43.52
2022-08-05T00:45:37.813Z,44.17
2022-08-05T00:48:09.299Z,44.02
2022-08-05T00:50:39.135Z,44.65
2022-08-05T00:53:09.852Z,44.42
2022-08-05T00:55:55.967Z,44.30
2022-08-05T00:58:27.334Z,43.71
2022-08-05T01:00:58.982Z,44.09
2022-08-05T01:03:30.880Z,44.52
2022-08-05T01:06:00.764Z,44.12
2022-08-05T01:08:42.277Z,44.53
2022-08-05T01:11:36.809Z,45.25
2022-08-05T01:14:28.345Z,45.66
2022-08-05T01:17:53.666Z,46.46
2022-08-05T01:20:40.658Z,46.17
2022-08-05T01:23:34.756Z,46.00
2022-08-05T01:26:26.819Z,46.21
2022-08-05T01:29:18.081Z,45.86
2022-08-05T01:31:58.895Z,45.12
2022-08-05T01:34:39.085Z,45.20
2022-08-05T01:37:24.853Z,45.26
2022-08-05T01:39:58.999Z,45.20
2022-08-05T01:42:29.163Z,45.77
2022-08-05T01:44:59.901Z,45.84
2022-08-05T01:47:39.371Z,45.90
2022-08-05T01:50:28.520Z,46.45
2022-08-05T01:53:02.531Z,46.91
2022-08-05T01:55:36.103Z,46.82
2022-08-05T01:58:13.192Z,46.65
2022-08-05T02:00:57.309Z,46.90
2022-08-05T02:03:36.117Z,47.39
2022-08-05T02:06:33.522Z,47.29
2022-08-05T02:08:55.202Z,47.29
2022-08-05T02:11:33.955Z,47.40
2022-08-05T02:14:20.852Z,47.76
2022-08-05T02:16:55.325Z,48.32
2022-08-05T02:19:34.432Z,48.40
2022-08-05T02:22:26.545Z,48.30
2022-08-05T02:25:05.494Z,48.60
2022-08-05T02:27:58.335Z,48.72
2022-08-05T02:30:35.088Z,49.56
2022-08-05T02:33:04.708Z,49.59
2022-08-05T02:35:38.160Z,49.81
2022-08-05T02:38:19.337Z,49.46
2022-08-05T02:40:47.490Z,50.53
2022-08-05T02:43:16.598Z,51.16
2022-08-05T02:45:52.555Z,50.96
2022-08-05T02:48:29.303Z,50.48
2022-08-05T02:51:02.649Z,50.19
2022-08-05T02:53:39.488Z,50.71
2022-08-05T02:56:15.772Z,50.64
2022-08-05T02:58:51.130Z,50.59
2022-08-05T03:01:25.031Z,51.08
2022-08-05T03:04:02.633Z,51.67
2022-08-05T03:06:55.331Z,51.52
2022-08-05T03:09:36.197Z,51.35
2022-08-05T03:12:06.229Z,51.97
2022-08-05T03:14:45.761Z,52.78
2022-08-05T03:17:13.116Z,53.06
2022-08-05T03:19:42.032Z,52.97
2022-08-05T03:22:16.409Z,52.73
2022-08-05T03:24:50.787Z,53.01
2022-08-05T03:27:20.564Z,53.26
2022-08-05T03:30:07.680Z,53.10
2022-08-05T03:32:35.857Z,53.09
2022-08-05T03:35:04.488Z,53.62
2022-08-05T03:37:31.637Z,54.45
2022-08-05T03:40:11.777Z,54.20
2022-08-05T03:42:41.629Z,54.00
2022-08-05T03:45:22.620Z,54.43
2022-08-05T03:47:51.408Z,54.87
2022-08-05T03:50:18.749Z,54.82
2022-08-05T03:55:52.078Z,54.91
2022-08-05T03:56:11.487Z,54.51
2022-08-05T03:58:46.827Z,53.86
2022-08-05T04:01:20.929Z,54.02
2022-08-05T04:04:10.381Z,54.11
2022-08-05T04:06:47.443Z,54.23
2022-08-05T04:09:20.288Z,54.46
2022-08-05T04:11:56.504Z,55.21
2022-08-05T04:14:30.250Z,55.22
2022-08-05T04:17:00.421Z,54.86
2022-08-05T04:19:29.472Z,54.30
2022-08-05T04:22:10.323Z,54.58
2022-08-05T04:24:52.283Z,54.95
2022-08-05T04:27:41.633Z,55.61
2022-08-05T04:30:09.191Z,56.00
2022-08-05T04:32:36.598Z,56.84
2022-08-05T04:35:05.885Z,57.10
2022-08-05T04:38:00.849Z,56.73
2022-08-05T04:40:21.263Z,56.40
2022-08-05T04:42:48.092Z,56.32
2022-08-05T04:45:31.383Z,56.25
2022-08-05T04:48:18.695Z,56.86
2022-08-05T04:51:03.513Z,57.55
2022-08-05T04:53:38.581Z,57.37
2022-08-05T04:56:15.148Z,57.12
2022-08-05T04:58:54.949Z,58.08
2022-08-05T05:02:05.616Z,62.71
2022-08-05T05:04:08.593Z,64.88
2022-08-05T05:06:44.394Z,66.14
2022-08-05T05:09:14.106Z,67.72
2022-08-05T05:11:53.269Z,66.45
2022-08-05T05:14:27.974Z,66.81
2022-08-05T05:17:00.546Z,69.33
2022-08-05T05:19:37.013Z,68.76
2022-08-05T05:22:23.549Z,70.14
2022-08-05T05:24:59.499Z,72.42
2022-08-05T05:27:38.477Z,74.45
2022-08-05T05:30:29.533Z,75.82
2022-08-05T05:33:15.877Z,76.14
2022-08-05T05:35:46.800Z,76.18
2022-08-05T05:38:25.242Z,75.02
2022-08-05T05:40:56.157Z,78.17
2022-08-05T05:43:54.309Z,78.89
2022-08-05T05:46:17.195Z,75.71
2022-08-05T05:48:48.372Z,76.19
2022-08-05T05:51:23.927Z,76.02
2022-08-05T05:53:57.737Z,76.05
2022-08-05T05:56:33.612Z,75.28
2022-08-05T05:59:07.495Z,75.54
2022-08-05T06:01:40.993Z,76.44
2022-08-05T06:04:24.430Z,76.30
2022-08-05T06:06:51.310Z,75.23
2022-08-05T06:09:35.374Z,73.75
2022-08-05T06:12:06.513Z,74.35
2022-08-05T06:14:36.919Z,68.13
2022-08-05T06:17:22.087Z,67.51
2022-08-05T06:19:56.649Z,69.84
2022-08-05T06:22:29.792Z,72.87
2022-08-05T06:24:57.191Z,75.10
2022-08-05T06:28:09.296Z,79.16
2022-08-05T06:30:17.742Z,81.07
2022-08-05T06:32:48.452Z,77.31
2022-08-05T06:36:03.901Z,74.32
2022-08-05T06:38:11.307Z,74.88
2022-08-05T06:40:44.498Z,73.54
2022-08-05T06:43:59.693Z,74.53
2022-08-05T06:46:04.236Z,74.80
2022-08-05T06:48:53.402Z,74.76
2022-08-05T06:51:29.488Z,73.98
2022-08-05T06:54:03.362Z,75.53
2022-08-05T06:56:34.801Z,73.44
2022-08-05T06:59:09.689Z,74.37
2022-08-05T07:01:40.525Z,72.34
2022-08-05T07:04:08.611Z,70.58
2022-08-05T07:06:35.724Z,68.53
2022-08-05T07:09:04.138Z,65.68
2022-08-05T07:11:37.340Z,64.23
2022-08-05T07:14:28.899Z,64.05
2022-08-05T07:17:58.902Z,62.54
2022-08-05T07:22:39.285Z,62.42
2022-08-05T07:25:23.553Z,60.91
2022-08-05T07:28:03.774Z,60.46
2022-08-05T07:30:38.762Z,61.15
2022-08-05T07:33:16.850Z,60.76
2022-08-05T07:36:03.520Z,58.16
2022-08-05T07:38:43.475Z,57.14
2022-08-05T07:42:13.011Z,58.25
2022-08-05T07:44:18.750Z,55.80
2022-08-05T07:46:48.590Z,54.68
2022-08-05T07:49:18.129Z,54.35
2022-08-05T07:51:53.560Z,50.90
2022-08-05T07:54:31.486Z,51.24
2022-08-05T07:57:22.539Z,48.98
2022-08-05T07:59:52.095Z,49.14
2022-08-05T08:02:30.844Z,47.93
2022-08-05T08:04:58.927Z,48.67
2022-08-05T08:07:28.391Z,47.92
2022-08-05T08:09:56.567Z,47.38
2022-08-05T08:12:33.446Z,47.78
2022-08-05T08:15:09.387Z,47.71
2022-08-05T08:17:46.247Z,48.25
2022-08-05T08:21:00.162Z,48.87
2022-08-05T08:23:59.934Z,47.97
2022-08-05T08:26:00.578Z,47.47
2022-08-05T08:28:37.058Z,46.71
2022-08-05T08:31:18.503Z,46.58
2022-08-05T08:33:45.988Z,46.04
2022-08-05T08:36:38.450Z,44.91
2022-08-05T08:39:06.946Z,44.07
2022-08-05T08:41:52.727Z,44.95
2022-08-05T08:45:17.127Z,44.18
2022-08-05T08:48:06.357Z,42.15
2022-08-05T08:50:32.016Z,42.89
2022-08-05T08:53:12.198Z,41.98
2022-08-05T08:56:04.047Z,40.72
2022-08-05T08:58:43.506Z,40.93
2022-08-05T09:01:15.828Z,40.77
2022-08-05T09:03:55.459Z,40.34
2022-08-05T09:06:28.055Z,41.18
2022-08-05T09:09:01.994Z,41.28
2022-08-05T09:11:50.724Z,41.82
2022-08-05T09:14:56.727Z,38.57
2022-08-05T09:17:09.757Z,39.03
2022-08-05T09:20:02.351Z,38.81
2022-08-05T09:23:27.197Z,38.88
2022-08-05T09:26:21.110Z,37.99
2022-08-05T09:28:49.363Z,37.24
2022-08-05T09:31:44.023Z,37.26
2022-08-05T09:34:11.713Z,36.57
2022-08-05T09:36:56.391Z,35.48
2022-08-05T09:39:42.030Z,36.73
2022-08-05T09:42:24.426Z,35.68
2022-08-05T09:44:57.489Z,36.76
2022-08-05T09:47:55.700Z,35.43
2022-08-05T09:50:44.045Z,34.54
2022-08-05T09:53:22.807Z,34.56
2022-08-05T09:56:04.896Z,35.54
2022-08-05T09:58:42.033Z,35.73
2022-08-05T10:01:15.311Z,35.96
2022-08-05T10:04:10.088Z,35.48
2022-08-05T10:06:54.650Z,34.31
2022-08-05T10:09:27.947Z,35.17
2022-08-05T10:12:28.329Z,35.76
2022-08-05T10:15:28.034Z,34.72
2022-08-05T10:18:06.272Z,34.11
2022-08-05T10:20:42.715Z,32.74
2022-08-05T10:23:34.263Z,32.74
2022-08-05T10:26:14.348Z,33.11
2022-08-05T10:28:59.843Z,34.89
2022-08-05T10:33:01.150Z,32.73
2022-08-05T10:34:14.473Z,32.08
2022-08-05T10:36:44.523Z,32.50
2022-08-05T10:39:59.048Z,31.31
2022-08-05T10:42:32.362Z,31.79
2022-08-05T10:45:21.599Z,32.11
2022-08-05T10:48:29.779Z,30.67
2022-08-05T10:51:04.298Z,30.45
2022-08-05T10:53:51.777Z,31.89
2022-08-05T10:56:30.828Z,30.61
2022-08-05T10:59:12.798Z,29.68
2022-08-05T11:02:14.114Z,31.06
2022-08-05T11:05:04.046Z,31.05
2022-08-05T11:07:32.827Z,30.28
2022-08-05T11:10:29.175Z,30.38
2022-08-05T11:13:01.290Z,28.68
2022-08-05T11:16:00.623Z,28.52
2022-08-05T11:18:34.360Z,30.68
2022-08-05T11:21:11.332Z,29.58
2022-08-05T11:24:05.536Z,29.33
2022-08-05T11:26:37.929Z,28.84
2022-08-05T11:29:12.828Z,29.61
2022-08-05T11:31:56.448Z,28.12
2022-08-05T11:34:51.011Z,27.57
2022-08-05T11:38:36.447Z,27.94
2022-08-05T11:41:35.021Z,28.03
2022-08-05T11:44:08.299Z,27.38
2022-08-05T11:47:09.598Z,27.21
2022-08-05T11:49:28.990Z,26.53
2022-08-05T11:52:01.501Z,25.60
2022-08-05T11:54:38.077Z,25.55
2022-08-05T11:57:07.972Z,24.83
2022-08-05T11:59:52.067Z,24.85
2022-08-05T12:02:31.467Z,24.93
2022-08-05T12:05:07.203Z,24.09
2022-08-05T12:08:08.337Z,24.30
2022-08-05T12:10:43.468Z,24.88
2022-08-05T12:13:47.446Z,24.98
2022-08-05T12:16:14.674Z,24.88
2022-08-05T12:18:48.946Z,25.18
2022-08-05T12:21:24.154Z,24.01
2022-08-05T12:24:06.906Z,24.40
2022-08-05T12:26:43.863Z,24.18
2022-08-05T12:29:16.105Z,23.91
2022-08-05T12:31:58.004Z,22.91
2022-08-05T12:34:36.877Z,23.70
2022-08-05T12:37:10.893Z,23.77
2022-08-05T12:39:48.713Z,24.73
2022-08-05T12:42:20.878Z,24.67
2022-08-05T12:44:48.829Z,25.84
2022-08-05T12:47:30.948Z,25.23
2022-08-05T12:50:03.065Z,24.62
2022-08-05T12:52:39.679Z,24.64
2022-08-05T12:55:28.758Z,23.74
2022-08-05T12:58:50.395Z,23.21
2022-08-05T13:02:01.595Z,23.10
2022-08-05T13:03:43.052Z,23.93
2022-08-05T13:06:30.707Z,24.28
2022-08-05T13:09:09.909Z,25.90
2022-08-05T13:12:02.917Z,26.99
2022-08-05T13:14:45.247Z,27.54
2022-08-05T13:17:41.514Z,28.20
2022-08-05T13:20:15.951Z,29.68
2022-08-05T13:22:52.369Z,29.95
2022-08-05T13:25:21.981Z,29.35
2022-08-05T13:28:10.693Z,29.81
2022-08-05T13:30:39.033Z,29.10
2022-08-05T13:33:06.274Z,28.33
2022-08-05T13:35:47.022Z,28.83
2022-08-05T13:38:28.500Z,29.70
2022-08-05T13:41:00.106Z,29.12
2022-08-05T13:43:45.305Z,28.10
2022-08-05T13:46:16.348Z,27.42
2022-08-05T13:49:00.611Z,28.69
2022-08-05T13:51:40.456Z,30.32
2022-08-05T13:54:12.509Z,30.81
2022-08-05T13:56:51.547Z,31.66
2022-08-05T13:59:27.039Z,32.04
2022-08-05T14:02:00.407Z,31.48
2022-08-05T14:04:54.303Z,32.03
2022-08-05T14:08:00.111Z,31.57
2022-08-05T14:10:29.022Z,30.56
2022-08-05T14:12:58.721Z,30.06
2022-08-05T14:16:08.395Z,30.47
2022-08-05T14:18:18.436Z,30.42
2022-08-05T14:20:54.527Z,30.70
2022-08-05T14:23:24.847Z,30.94
2022-08-05T14:25:58.566Z,31.56
2022-08-05T14:28:30.746Z,31.49
2022-08-05T14:31:01.781Z,31.66
2022-08-05T14:33:59.528Z,31.65
2022-08-05T14:36:21.342Z,32.08
2022-08-05T14:38:50.499Z,32.36
2022-08-05T14:41:18.686Z,32.53
2022-08-05T14:44:01.881Z,33.25
2022-08-05T14:46:35.136Z,34.86
2022-08-05T14:49:07.452Z,35.53
2022-08-05T14:51:42.862Z,36.05
2022-08-05T14:54:27.501Z,36.13
2022-08-05T14:56:57.452Z,37.29
2022-08-05T14:59:25.027Z,37.78
2022-08-05T15:01:58.687Z,38.14
2022-08-05T15:04:27.446Z,38.04
2022-08-05T15:06:56.362Z,38.72
2022-08-05T15:09:52.258Z,39.35
2022-08-05T15:12:16.596Z,39.42
2022-08-05T15:14:49.653Z,39.49
2022-08-05T15:17:46.406Z,39.66
2022-08-05T15:20:18.355Z,40.38
2022-08-05T15:22:54.038Z,40.58
2022-08-05T15:25:41.326Z,40.91
2022-08-05T15:28:13.290Z,41.09
2022-08-05T15:30:43.777Z,41.21
2022-08-05T15:33:13.512Z,41.11
2022-08-05T15:36:03.689Z,40.92
2022-08-05T15:38:36.554Z,41.14
2022-08-05T15:41:21.280Z,41.51
2022-08-05T15:43:50.715Z,40.84
2022-08-05T15:46:20.640Z,41.61
2022-08-05T15:48:58.603Z,41.83
2022-08-05T15:52:13.268Z,41.21
2022-08-05T15:54:17.011Z,41.58
2022-08-05T15:56:44.116Z,41.69
2022-08-05T15:59:20.020Z,41.41
2022-08-05T16:01:52.930Z,41.41
2022-08-05T16:04:25.723Z,41.46
2022-08-05T16:06:55.619Z,41.59
2022-08-05T16:09:24.334Z,41.98
2022-08-05T16:11:53.750Z,42.19
2022-08-05T16:14:22.305Z,42.52
2022-08-05T16:16:50.050Z,42.58
2022-08-05T16:19:25.483Z,42.46
2022-08-05T16:22:05.806Z,42.26
2022-08-05T16:24:40.209Z,42.42
2022-08-05T16:27:09.619Z,42.86
2022-08-05T16:29:50.298Z,43.21
2022-08-05T16:32:23.492Z,43.03
2022-08-05T16:34:57.759Z,43.00
2022-08-05T16:38:15.888Z,43.24
2022-08-05T16:40:28.660Z,42.88
2022-08-05T16:42:57.345Z,43.04
2022-08-05T16:46:03.520Z,43.63
2022-08-05T16:48:11.197Z,43.83
2022-08-05T16:50:53.101Z,44.39
2022-08-05T16:53:22.902Z,44.38
2022-08-05T16:55:59.090Z,44.48
2022-08-05T16:58:26.413Z,44.45
2022-08-05T17:00:56.356Z,45.02
2022-08-05T17:03:23.440Z,44.73
2022-08-05T17:05:54.277Z,45.67
2022-08-05T17:08:36.310Z,46.59
2022-08-05T17:11:17.532Z,47.17
2022-08-05T17:13:46.039Z,47.79
2022-08-05T17:16:32.515Z,48.43
2022-08-05T17:19:01.112Z,48.81
2022-08-05T17:21:35.826Z,49.14
2022-08-05T17:24:28.419Z,49.63
2022-08-05T17:26:57.118Z,49.61
2022-08-05T17:29:39.912Z,49.53
2022-08-05T17:32:26.341Z,49.73
2022-08-05T17:34:53.301Z,49.61
2022-08-05T17:37:41.005Z,49.34
2022-08-05T17:40:12.975Z,49.35
2022-08-05T17:42:49.697Z,49.47
2022-08-05T17:45:25.026Z,49.62
2022-08-05T17:47:56.584Z,49.67
2022-08-05T17:50:30.277Z,49.80
2022-08-05T17:53:04.729Z,49.75
2022-08-05T17:55:38.407Z,49.60
2022-08-05T17:58:13.408Z,49.90
2022-08-05T18:00:47.657Z,49.73
2022-08-05T18:06:12.244Z,49.82
2022-08-05T18:08:46.185Z,49.77
2022-08-05T18:11:24.439Z,49.42
2022-08-05T18:13:56.583Z,49.45
2022-08-05T18:16:26.493Z,49.21
2022-08-05T18:18:53.343Z,49.52
2022-08-05T18:21:22.862Z,49.30
2022-08-05T18:23:54.360Z,49.26
2022-08-05T18:26:29.027Z,49.38
2022-08-05T18:28:59.585Z,49.21
2022-08-05T18:31:32.960Z,49.42
2022-08-05T18:34:06.062Z,48.96
2022-08-05T18:36:35.315Z,49.04
2022-08-05T18:39:09.695Z,48.96
2022-08-05T18:41:58.475Z,49.25
2022-08-05T18:44:35.161Z,49.21
2022-08-05T18:47:16.067Z,49.43
2022-08-05T18:50:01.280Z,49.79
2022-08-05T18:52:33.602Z,49.76
2022-08-05T18:55:06.599Z,50.03
2022-08-05T18:57:43.678Z,50.29
2022-08-05T19:00:27.079Z,50.51
2022-08-05T19:03:04.171Z,51.08
2022-08-05T19:06:11.319Z,51.32
2022-08-05T19:08:19.906Z,51.56
2022-08-05T19:10:49.954Z,51.50
2022-08-05T19:13:17.716Z,51.47
2022-08-05T19:15:57.224Z,52.06
2022-08-05T19:18:28.597Z,51.62
2022-08-05T19:20:56.131Z,51.72
2022-08-05T19:24:06.838Z,51.90
2022-08-05T19:26:11.336Z,52.40
2022-08-05T19:28:43.389Z,51.63
2022-08-05T19:31:13.359Z,51.64
2022-08-05T19:33:48.387Z,51.30
2022-08-05T19:36:27.043Z,51.68
2022-08-05T19:38:58.920Z,52.16
2022-08-05T19:41:58.124Z,52.60
2022-08-05T19:44:16.010Z,52.89
2022-08-05T19:46:43.507Z,52.65
2022-08-05T19:49:17.136Z,52.68
2022-08-05T19:52:08.725Z,52.70
2022-08-05T19:54:49.728Z,52.91
2022-08-05T19:57:18.687Z,52.75
2022-08-05T20:00:06.065Z,53.32
2022-08-05T20:02:33.695Z,53.37
2022-08-05T20:05:04.868Z,53.36
2022-08-05T20:07:46.829Z,52.94
2022-08-05T20:10:17.191Z,53.45
2022-08-05T20:12:48.174Z,53.86
2022-08-05T20:15:48.928Z,53.25
2022-08-05T20:18:10.412Z,53.60
2022-08-05T20:20:57.099Z,53.86
2022-08-05T20:23:39.181Z,53.82
2022-08-05T20:26:16.504Z,53.44
2022-08-05T20:28:48.589Z,53.64
2022-08-05T20:31:23.016Z,53.48
2022-08-05T20:33:56.377Z,53.28
2022-08-05T20:36:24.347Z,53.39
2022-08-05T20:38:53.350Z,53.96
2022-08-05T20:41:27.104Z,53.98
2022-08-05T20:44:17.062Z,53.78
2022-08-05T20:46:47.732Z,53.82
2022-08-05T20:49:15.229Z,54.05
2022-08-05T20:51:53.357Z,53.82
2022-08-05T20:54:22.049Z,54.11
2022-08-05T20:56:49.139Z,54.20
2022-08-05T20:59:19.132Z,54.40
2022-08-05T21:01:57.247Z,54.50
2022-08-05T21:04:26.885Z,54.34
2022-08-05T21:06:54.976Z,54.11
2022-08-05T21:09:23.347Z,54.25
2022-08-05T21:12:10.868Z,54.02
2022-08-05T21:14:39.549Z,54.02
2022-08-05T21:17:06.591Z,53.82
2022-08-05T21:19:46.552Z,54.07
2022-08-05T21:22:18.364Z,54.00
2022-08-05T21:24:48.967Z,53.78
2022-08-05T21:27:20.664Z,54.18
2022-08-05T21:29:53.975Z,54.02
2022-08-05T21:32:27.793Z,53.67
2022-08-05T21:35:08.608Z,53.53
2022-08-05T21:37:52.707Z,53.48
2022-08-05T21:40:24.998Z,53.35
2022-08-05T21:42:53.630Z,53.51
2022-08-05T21:45:24.988Z,53.67
2022-08-05T21:47:56.873Z,53.55
2022-08-05T21:50:26.429Z,53.90
2022-08-05T21:52:59.146Z,53.92
2022-08-05T21:55:43.034Z,53.53
2022-08-05T21:58:20.424Z,53.77
2022-08-05T22:00:55.878Z,53.79
2022-08-05T22:03:52.067Z,53.17
2022-08-05T22:06:35.393Z,52.95
2022-08-05T22:09:13.829Z,52.04
2022-08-05T22:11:42.895Z,52.28
2022-08-05T22:14:37.187Z,52.40
2022-08-05T22:17:03.889Z,51.52
2022-08-05T22:20:01.317Z,49.93
2022-08-05T22:22:26.820Z,49.25
2022-08-05T22:25:18.008Z,48.52
2022-08-05T22:28:10.437Z,47.32
2022-08-05T22:30:55.931Z,46.85
2022-08-05T22:33:57.323Z,46.68
2022-08-05T22:36:18.604Z,46.52
2022-08-05T22:38:48.689Z,46.52
2022-08-05T22:42:04.946Z,46.69
2022-08-05T22:44:08.735Z,46.41
2022-08-05T22:46:39.736Z,46.48
2022-08-05T22:50:17.787Z,46.26
2022-08-05T22:52:05.414Z,45.90
2022-08-05T22:54:36.455Z,45.79
2022-08-05T22:57:05.796Z,45.94
2022-08-05T22:59:45.029Z,46.01
2022-08-05T23:02:17.332Z,45.94
2022-08-05T23:04:52.050Z,45.96
2022-08-05T23:07:21.977Z,45.93
2022-08-05T23:09:57.954Z,46.08
2022-08-05T23:12:33.230Z,46.00
2022-08-05T23:15:09.090Z,45.59
2022-08-05T23:17:59.648Z,45.87
2022-08-05T23:20:24.369Z,46.26
2022-08-05T23:22:55.689Z,46.06
2022-08-05T23:25:53.008Z,45.97
2022-08-05T23:28:12.636Z,45.76
2022-08-05T23:30:43.435Z,46.02
2022-08-05T23:33:16.418Z,46.04
2022-08-05T23:35:50.871Z,45.72
2022-08-05T23:38:18.325Z,45.67
2022-08-05T23:40:49.423Z,45.66
2022-08-05T23:43:25.537Z,45.90
2022-08-05T23:46:20.749Z,46.10
2022-08-05T23:49:01.143Z,46.03
2022-08-05T23:51:53.870Z,45.88
2022-08-05T23:54:30.174Z,45.89
2022-08-05T23:57:03.481Z,45.81
